Arlington, Georgia
Current Conditions -  °F | °C
As of 1:10 PM on Friday 28 Nov 2014 (Local Time) from KBIJ Reporting Station
Clear Clear  
Wind Chill: 52°   Ceiling: Unl
Heat Index: 52°   Visibility: 10mi
Dew Point: 27°   Wind: 3mph
Humidity: 38%   Direction: 30°NNE
Pressure: 30.36"   Gusts: NA
Location:  31.44°N, 84.72°W
Report Text: KBIJ 281810Z AUTO 03003KT 10SM CLR 11/M03 A3036 RMK AO2
Loading
Personal Weather Stations






























Interactive Weather Map New forecast layout! Learn more

10-Day Weather Forecast

Advertisements
Track Severe Weather on mobile